Agricola, Mississippi
Current Conditions -  °F | °C
As of 9:56 PM on Wednesday 22 Oct 2014 (Local Time) from KMOB Reporting Station
Clear Clear  
Wind Chill: 58°   Ceiling: Unl
Heat Index: 58°   Visibility: 10mi
Dew Point: 47°   Wind: 7mph
Humidity: 67%   Direction: 40°NE
Pressure: 30.1"   Gusts: NA
Location:  30.8443°N, 88.5703°W
Report Text: KMOB 230256Z 04006KT 10SM CLR 14/08 A3010 RMK AO2 SLP190 T01440083 51013
Loading
Personal Weather Stations






























Interactive Weather Map
Tropical Storm Tracking
New forecast layout! Learn more

10-Day Weather Forecast

Advertisements
Track Severe Weather on mobile